John Paul Eckstein — WDH6438 — position and weather

sailwx.info

Track history (hours):
 
Tides and Currents Weather Stations Pressure Air Temp Water Temp Dewpoint Dewpoint Depression Visibility Wind Speed Wind Dir Waves Ship Positions

John Paul Eckstein

Owner: Marquette Transportation Co. LLC, Paducah, KY. More information available from US FCC via Universal Licensing System and Coast Guard Vessel Documentation Center.

Last reported at 2017-Sep-15 00:51 UTC. Time now 2017-Sep-22 00:37 UTC.
Position N 32°45' W 091°09'.

Length 51 m; draft 2.7 m.

Type: Towing. MMSI: 367637960.

Date/timePositionNaut miles runAvg speedWind from/ knotsBaromVisibWave heightAir tempDewpointWater temp
2017-Sep-15 00:51N 32°45' W 091°09'2 2.6
2017-Sep-15 00:08N 32°44' W 091°07'1 4.8
2017-Sep-15 00:00N 32°44' W 091°06'2 4.8
2017-Sep-14 23:30N 32°44' W 091°03'4 3.9
2017-Sep-14 22:24N 32°40' W 091°07'3 3.8
2017-Sep-14 21:37N 32°38' W 091°09'0 4.4
2017-Sep-14 21:30N 32°38' W 091°09'2 3.3
2017-Sep-14 21:00N 32°36' W 091°09'2 4.8
2017-Sep-14 20:30N 32°34' W 091°07'2 4.2
2017-Sep-14 20:00N 32°32' W 091°06'3 4.9
2017-Sep-14 19:29N 32°30' W 091°07'2 4.8
2017-Sep-14 19:00N 32°28' W 091°06'2 5.0
2017-Sep-14 18:30N 32°26' W 091°04'2 4.9
2017-Sep-14 18:00N 32°26' W 091°01'2 4.0
2017-Sep-14 17:30N 32°24' W 090°59'2 4.1
2017-Sep-14 17:00N 32°22' W 091°00'2 4.0
2017-Sep-14 16:30N 32°21' W 090°58'2 4.8
2017-Sep-14 16:00N 32°21' W 090°56'1 2.6
2017-Sep-14 15:30N 32°20' W 090°54'2 4.1
2017-Sep-14 15:00N 32°18' W 090°55'1 2.2
2017-Sep-14 14:30N 32°18' W 090°56'2 4.8
2017-Sep-14 14:00N 32°16' W 090°58'2 3.9
2017-Sep-14 13:30N 32°14' W 090°59'2 4.4
2017-Sep-14 13:00N 32°12' W 090°59'2 4.4
2017-Sep-14 12:30N 32°10' W 091°00'2 4.5
2017-Sep-14 12:00N 32°08' W 091°01'2 3.6
2017-Sep-14 11:30N 32°07' W 091°03'3 4.9
2017-Sep-14 11:00N 32°08' W 091°06'2 3.5
2017-Sep-14 10:30N 32°06' W 091°06'2 3.2
2017-Sep-14 09:54N 32°05' W 091°04'2 3.1
2017-Sep-14 09:20N 32°04' W 091°03'2 4.9
2017-Sep-14 08:54N 32°02' W 091°04'18 4.2
2017-Sep-14 04:41N 31°51' W 091°21'1 4.0
2017-Sep-14 04:30N 31°50' W 091°21'4 3.9
2017-Sep-14 03:23N 31°46' W 091°22'4 4.9
2017-Sep-14 02:38N 31°42' W 091°24'  
2017-Sep-09 19:52N 31°57' W 091°11'6 9.4
2017-Sep-09 19:15N 31°60' W 091°05'310.6
2017-Sep-09 18:59N 32°02' W 091°04'4 9.3
2017-Sep-09 18:30N 32°06' W 091°06'2 3.1
2017-Sep-09 18:00N 32°08' W 091°06'4 8.1
2017-Sep-09 17:30N 32°07' W 091°01'510.4
2017-Sep-09 17:00N 32°12' W 090°59'510.1
2017-Sep-09 16:30N 32°17' W 090°57'2 3.9
2017-Sep-09 16:00N 32°18' W 090°55'0 0.1
2017-Sep-09 15:30N 32°18' W 090°55'0 0.0
2017-Sep-09 15:00N 32°18' W 090°55'0 0.0
2017-Sep-09 14:30N 32°18' W 090°55'0 0.0
2017-Sep-09 14:00N 32°18' W 090°55'0 0.0
2017-Sep-09 13:30N 32°18' W 090°55'0 0.0
2017-Sep-09 13:00N 32°18' W 090°55'0 0.0
2017-Sep-09 12:30N 32°18' W 090°55'0 0.0
2017-Sep-09 12:00N 32°18' W 090°55'0 0.0
2017-Sep-09 11:30N 32°18' W 090°55'0 0.0
2017-Sep-09 11:00N 32°18' W 090°55'0 0.0
2017-Sep-09 10:30N 32°18' W 090°55'1 1.2
2017-Sep-09 10:00N 32°19' W 090°54'3 6.2
2017-Sep-09 09:30N 32°21' W 090°57'0 0.4
2017-Sep-09 09:00N 32°21' W 090°57'0 0.0
2017-Sep-09 08:30N 32°21' W 090°57'0 0.0
2017-Sep-09 08:00N 32°21' W 090°57'0 0.0
2017-Sep-09 07:30N 32°21' W 090°57'0 0.6
2017-Sep-09 07:00N 32°21' W 090°57'2 4.8
2017-Sep-09 06:30N 32°22' W 091°00'4 8.3
2017-Sep-09 06:00N 32°26' W 091°01'510.2
2017-Sep-09 05:30N 32°28' W 091°06'510.1
2017-Sep-09 05:00N 32°33' W 091°06'510.2
2017-Sep-09 04:30N 32°38' W 091°09'4 7.4
2017-Sep-09 03:59N 32°40' W 091°06'4 8.0
2017-Sep-09 03:29N 32°44' W 091°03'4 7.2
2017-Sep-09 02:55N 32°44' W 091°08'  
Track history (hours):
 
Tides and Currents Weather Stations Pressure Air Temp Water Temp Dewpoint Dewpoint Depression Visibility Wind Speed Wind Dir Waves Ship Positions

John Paul Eckstein

Owner: Marquette Transportation Co. LLC, Paducah, KY. More information available from US FCC via Universal Licensing System and Coast Guard Vessel Documentation Center.

Last reported at 2017-Sep-15 00:51 UTC. Time now 2017-Sep-22 00:37 UTC.
Position N 32°45' W 091°09'.

Length 51 m; draft 2.7 m.

Type: Towing. MMSI: 367637960.

Date/timePositionNaut miles runAvg speedWind from/ knotsBaromVisibWave heightAir tempDewpointWater temp
2017-Sep-15 00:51N 32°45' W 091°09'2 2.6
2017-Sep-15 00:08N 32°44' W 091°07'1 4.8
2017-Sep-15 00:00N 32°44' W 091°06'2 4.8
2017-Sep-14 23:30N 32°44' W 091°03'4 3.9
2017-Sep-14 22:24N 32°40' W 091°07'3 3.8
2017-Sep-14 21:37N 32°38' W 091°09'0 4.4
2017-Sep-14 21:30N 32°38' W 091°09'2 3.3
2017-Sep-14 21:00N 32°36' W 091°09'2 4.8
2017-Sep-14 20:30N 32°34' W 091°07'2 4.2
2017-Sep-14 20:00N 32°32' W 091°06'3 4.9
2017-Sep-14 19:29N 32°30' W 091°07'2 4.8
2017-Sep-14 19:00N 32°28' W 091°06'2 5.0
2017-Sep-14 18:30N 32°26' W 091°04'2 4.9
2017-Sep-14 18:00N 32°26' W 091°01'2 4.0
2017-Sep-14 17:30N 32°24' W 090°59'2 4.1
2017-Sep-14 17:00N 32°22' W 091°00'2 4.0
2017-Sep-14 16:30N 32°21' W 090°58'2 4.8
2017-Sep-14 16:00N 32°21' W 090°56'1 2.6
2017-Sep-14 15:30N 32°20' W 090°54'2 4.1
2017-Sep-14 15:00N 32°18' W 090°55'1 2.2
2017-Sep-14 14:30N 32°18' W 090°56'2 4.8
2017-Sep-14 14:00N 32°16' W 090°58'2 3.9
2017-Sep-14 13:30N 32°14' W 090°59'2 4.4
2017-Sep-14 13:00N 32°12' W 090°59'2 4.4
2017-Sep-14 12:30N 32°10' W 091°00'2 4.5
2017-Sep-14 12:00N 32°08' W 091°01'2 3.6
2017-Sep-14 11:30N 32°07' W 091°03'3 4.9
2017-Sep-14 11:00N 32°08' W 091°06'2 3.5
2017-Sep-14 10:30N 32°06' W 091°06'2 3.2
2017-Sep-14 09:54N 32°05' W 091°04'2 3.1
2017-Sep-14 09:20N 32°04' W 091°03'2 4.9
2017-Sep-14 08:54N 32°02' W 091°04'18 4.2
2017-Sep-14 04:41N 31°51' W 091°21'1 4.0
2017-Sep-14 04:30N 31°50' W 091°21'4 3.9
2017-Sep-14 03:23N 31°46' W 091°22'4 4.9
2017-Sep-14 02:38N 31°42' W 091°24'  
2017-Sep-09 19:52N 31°57' W 091°11'6 9.4
2017-Sep-09 19:15N 31°60' W 091°05'310.6
2017-Sep-09 18:59N 32°02' W 091°04'4 9.3
2017-Sep-09 18:30N 32°06' W 091°06'2 3.1
2017-Sep-09 18:00N 32°08' W 091°06'4 8.1
2017-Sep-09 17:30N 32°07' W 091°01'510.4
2017-Sep-09 17:00N 32°12' W 090°59'510.1
2017-Sep-09 16:30N 32°17' W 090°57'2 3.9
2017-Sep-09 16:00N 32°18' W 090°55'0 0.1
2017-Sep-09 15:30N 32°18' W 090°55'0 0.0
2017-Sep-09 15:00N 32°18' W 090°55'0 0.0
2017-Sep-09 14:30N 32°18' W 090°55'0 0.0
2017-Sep-09 14:00N 32°18' W 090°55'0 0.0
2017-Sep-09 13:30N 32°18' W 090°55'0 0.0
2017-Sep-09 13:00N 32°18' W 090°55'0 0.0
2017-Sep-09 12:30N 32°18' W 090°55'0 0.0
2017-Sep-09 12:00N 32°18' W 090°55'0 0.0
2017-Sep-09 11:30N 32°18' W 090°55'0 0.0
2017-Sep-09 11:00N 32°18' W 090°55'0 0.0
2017-Sep-09 10:30N 32°18' W 090°55'1 1.2
2017-Sep-09 10:00N 32°19' W 090°54'3 6.2
2017-Sep-09 09:30N 32°21' W 090°57'0 0.4
2017-Sep-09 09:00N 32°21' W 090°57'0 0.0
2017-Sep-09 08:30N 32°21' W 090°57'0 0.0
2017-Sep-09 08:00N 32°21' W 090°57'0 0.0
2017-Sep-09 07:30N 32°21' W 090°57'0 0.6
2017-Sep-09 07:00N 32°21' W 090°57'2 4.8
2017-Sep-09 06:30N 32°22' W 091°00'4 8.3
2017-Sep-09 06:00N 32°26' W 091°01'510.2
2017-Sep-09 05:30N 32°28' W 091°06'510.1
2017-Sep-09 05:00N 32°33' W 091°06'510.2
2017-Sep-09 04:30N 32°38' W 091°09'4 7.4
2017-Sep-09 03:59N 32°40' W 091°06'4 8.0
2017-Sep-09 03:29N 32°44' W 091°03'4 7.2
2017-Sep-09 02:55N 32°44' W 091°08'  

Dump ship's entire track history